« Back
NWS Peachtree City, Ga » Text Product » AHN Terminal Aerodrome Forecast


Printer-friendly Version
Current Version              Previous Versions:   1  2  3  4  5  6  7  8  9  

Terminal Aerodrome Forecast

134
FTUS42 KFFC 181122
TAFAHN
TAF
KAHN 181122Z 1812/1912 30005KT P6SM SCT150 SCT250
     FM181600 32004KT P6SM BKN060
     FM190100 31003KT P6SM SCT080 BKN150
     FM190900 00000KT P6SM SCT150=



USA.gov is the U.S. government's official web portal to all federal, state and local government web resources and services.